sensor_id;sensor_type;location;lat;lon;timestamp;P1;durP1;ratioP1;P2;durP2;ratioP2
36923;SDS011;22841;50.252;18.688;2023-11-21T00:01:38;31.98;;;16.02;;
36923;SDS011;22841;50.252;18.688;2023-11-21T00:04:05;24.25;;;15.80;;
36923;SDS011;22841;50.252;18.688;2023-11-21T00:06:33;29.05;;;15.20;;
36923;SDS011;22841;50.252;18.688;2023-11-21T00:08:59;30.75;;;14.95;;
36923;SDS011;22841;50.252;18.688;2023-11-21T00:11:26;28.67;;;16.52;;
36923;SDS011;22841;50.252;18.688;2023-11-21T00:13:52;40.97;;;20.73;;
36923;SDS011;22841;50.252;18.688;2023-11-21T00:16:18;34.78;;;17.98;;
36923;SDS011;22841;50.252;18.688;2023-11-21T00:18:44;36.28;;;18.42;;
36923;SDS011;22841;50.252;18.688;2023-11-21T00:21:12;34.03;;;17.40;;
36923;SDS011;22841;50.252;18.688;2023-11-21T00:23:38;34.72;;;19.65;;
36923;SDS011;22841;50.252;18.688;2023-11-21T00:26:04;37.45;;;21.52;;
36923;SDS011;22841;50.252;18.688;2023-11-21T00:28:30;33.20;;;18.98;;
36923;SDS011;22841;50.252;18.688;2023-11-21T00:30:58;43.60;;;20.40;;
36923;SDS011;22841;50.252;18.688;2023-11-21T00:33:24;33.42;;;18.05;;
36923;SDS011;22841;50.252;18.688;2023-11-21T00:35:50;22.35;;;14.93;;
36923;SDS011;22841;50.252;18.688;2023-11-21T00:38:16;23.58;;;13.73;;
36923;SDS011;22841;50.252;18.688;2023-11-21T00:40:45;20.70;;;12.23;;
36923;SDS011;22841;50.252;18.688;2023-11-21T00:43:11;19.90;;;12.18;;
36923;SDS011;22841;50.252;18.688;2023-11-21T00:45:38;26.70;;;10.80;;
36923;SDS011;22841;50.252;18.688;2023-11-21T00:48:05;16.17;;;8.75;;
36923;SDS011;22841;50.252;18.688;2023-11-21T00:50:31;13.15;;;8.68;;
36923;SDS011;22841;50.252;18.688;2023-11-21T00:52:58;16.15;;;7.38;;
36923;SDS011;22841;50.252;18.688;2023-11-21T00:55:24;19.15;;;10.77;;
36923;SDS011;22841;50.252;18.688;2023-11-21T00:57:50;19.67;;;9.02;;
36923;SDS011;22841;50.252;18.688;2023-11-21T01:00:17;17.65;;;8.77;;
36923;SDS011;22841;50.252;18.688;2023-11-21T01:02:43;19.33;;;10.95;;
36923;SDS011;22841;50.252;18.688;2023-11-21T01:05:10;16.23;;;9.75;;
36923;SDS011;22841;50.252;18.688;2023-11-21T01:07:36;18.52;;;9.60;;
36923;SDS011;22841;50.252;18.688;2023-11-21T01:10:03;13.07;;;9.75;;
36923;SDS011;22841;50.252;18.688;2023-11-21T01:12:34;18.80;;;9.63;;
36923;SDS011;22841;50.252;18.688;2023-11-21T01:15:02;16.73;;;9.20;;
36923;SDS011;22841;50.252;18.688;2023-11-21T01:17:34;17.60;;;9.70;;
36923;SDS011;22841;50.252;18.688;2023-11-21T01:20:01;14.35;;;8.27;;
36923;SDS011;22841;50.252;18.688;2023-11-21T01:22:28;19.05;;;8.60;;
36923;SDS011;22841;50.252;18.688;2023-11-21T01:24:54;20.00;;;9.23;;
36923;SDS011;22841;50.252;18.688;2023-11-21T01:27:21;14.88;;;10.07;;
36923;SDS011;22841;50.252;18.688;2023-11-21T01:29:48;13.07;;;9.15;;
36923;SDS011;22841;50.252;18.688;2023-11-21T01:32:14;15.52;;;8.68;;
36923;SDS011;22841;50.252;18.688;2023-11-21T01:34:40;15.70;;;7.63;;
36923;SDS011;22841;50.252;18.688;2023-11-21T01:37:06;16.10;;;8.73;;
36923;SDS011;22841;50.252;18.688;2023-11-21T01:39:32;14.95;;;8.73;;
36923;SDS011;22841;50.252;18.688;2023-11-21T01:41:58;16.63;;;8.98;;
36923;SDS011;22841;50.252;18.688;2023-11-21T01:44:25;20.67;;;9.00;;
36923;SDS011;22841;50.252;18.688;2023-11-21T01:46:51;18.80;;;8.38;;
36923;SDS011;22841;50.252;18.688;2023-11-21T01:49:17;16.50;;;8.20;;
36923;SDS011;22841;50.252;18.688;2023-11-21T01:51:44;13.07;;;8.10;;
36923;SDS011;22841;50.252;18.688;2023-11-21T01:54:15;14.32;;;7.00;;
36923;SDS011;22841;50.252;18.688;2023-11-21T01:56:44;9.35;;;7.05;;
36923;SDS011;22841;50.252;18.688;2023-11-21T01:59:12;18.77;;;7.05;;
36923;SDS011;22841;50.252;18.688;2023-11-21T02:04:09;13.00;;;7.28;;
36923;SDS011;22841;50.252;18.688;2023-11-21T02:06:35;12.57;;;8.60;;
36923;SDS011;22841;50.252;18.688;2023-11-21T02:09:01;13.48;;;7.80;;
36923;SDS011;22841;50.252;18.688;2023-11-21T02:11:30;12.75;;;8.20;;
36923;SDS011;22841;50.252;18.688;2023-11-21T02:13:58;13.40;;;8.05;;
36923;SDS011;22841;50.252;18.688;2023-11-21T02:16:24;14.55;;;7.43;;
36923;SDS011;22841;50.252;18.688;2023-11-21T02:18:52;16.20;;;7.50;;
36923;SDS011;22841;50.252;18.688;2023-11-21T02:21:18;16.38;;;6.55;;
36923;SDS011;22841;50.252;18.688;2023-11-21T02:23:45;13.95;;;8.35;;
36923;SDS011;22841;50.252;18.688;2023-11-21T02:26:12;15.07;;;7.30;;
36923;SDS011;22841;50.252;18.688;2023-11-21T02:28:39;17.13;;;6.28;;
36923;SDS011;22841;50.252;18.688;2023-11-21T02:31:06;14.27;;;6.30;;
36923;SDS011;22841;50.252;18.688;2023-11-21T02:33:33;14.65;;;6.72;;
36923;SDS011;22841;50.252;18.688;2023-11-21T02:36:00;14.77;;;6.93;;
36923;SDS011;22841;50.252;18.688;2023-11-21T02:38:27;11.27;;;5.95;;
36923;SDS011;22841;50.252;18.688;2023-11-21T02:40:53;16.77;;;7.95;;
36923;SDS011;22841;50.252;18.688;2023-11-21T02:43:19;13.73;;;7.32;;
36923;SDS011;22841;50.252;18.688;2023-11-21T02:45:45;16.90;;;6.50;;
36923;SDS011;22841;50.252;18.688;2023-11-21T02:48:12;14.60;;;6.20;;
36923;SDS011;22841;50.252;18.688;2023-11-21T02:50:38;17.88;;;5.70;;
36923;SDS011;22841;50.252;18.688;2023-11-21T02:53:04;10.30;;;5.57;;
36923;SDS011;22841;50.252;18.688;2023-11-21T02:55:33;8.57;;;5.53;;
36923;SDS011;22841;50.252;18.688;2023-11-21T02:58:02;22.17;;;7.10;;
36923;SDS011;22841;50.252;18.688;2023-11-21T03:00:31;17.67;;;7.57;;
36923;SDS011;22841;50.252;18.688;2023-11-21T03:02:57;16.55;;;7.28;;
36923;SDS011;22841;50.252;18.688;2023-11-21T03:05:24;16.83;;;8.90;;
36923;SDS011;22841;50.252;18.688;2023-11-21T03:07:50;20.05;;;10.57;;
36923;SDS011;22841;50.252;18.688;2023-11-21T03:10:16;27.83;;;10.40;;
36923;SDS011;22841;50.252;18.688;2023-11-21T03:12:42;20.45;;;10.15;;
36923;SDS011;22841;50.252;18.688;2023-11-21T03:15:10;23.17;;;12.25;;
36923;SDS011;22841;50.252;18.688;2023-11-21T03:17:36;31.65;;;14.38;;
36923;SDS011;22841;50.252;18.688;2023-11-21T03:20:03;29.35;;;14.95;;
36923;SDS011;22841;50.252;18.688;2023-11-21T03:22:29;36.10;;;14.82;;
36923;SDS011;22841;50.252;18.688;2023-11-21T03:24:55;23.80;;;12.57;;
36923;SDS011;22841;50.252;18.688;2023-11-21T03:27:21;24.40;;;13.30;;
36923;SDS011;22841;50.252;18.688;2023-11-21T03:29:48;21.95;;;12.30;;
36923;SDS011;22841;50.252;18.688;2023-11-21T03:32:15;25.25;;;13.48;;
36923;SDS011;22841;50.252;18.688;2023-11-21T03:34:55;32.45;;;17.55;;
36923;SDS011;22841;50.252;18.688;2023-11-21T03:37:23;35.42;;;18.90;;
36923;SDS011;22841;50.252;18.688;2023-11-21T03:39:50;16.33;;;11.27;;
36923;SDS011;22841;50.252;18.688;2023-11-21T03:42:16;15.15;;;9.70;;
36923;SDS011;22841;50.252;18.688;2023-11-21T03:44:43;24.23;;;10.23;;
36923;SDS011;22841;50.252;18.688;2023-11-21T03:47:09;39.58;;;21.00;;
36923;SDS011;22841;50.252;18.688;2023-11-21T03:49:35;29.77;;;16.67;;
36923;SDS011;22841;50.252;18.688;2023-11-21T03:52:01;28.02;;;13.38;;
36923;SDS011;22841;50.252;18.688;2023-11-21T03:54:28;21.33;;;11.10;;
36923;SDS011;22841;50.252;18.688;2023-11-21T03:56:54;23.08;;;12.07;;
36923;SDS011;22841;50.252;18.688;2023-11-21T03:59:20;22.15;;;13.80;;
36923;SDS011;22841;50.252;18.688;2023-11-21T04:01:46;21.85;;;13.13;;
36923;SDS011;22841;50.252;18.688;2023-11-21T04:04:12;25.88;;;14.75;;
36923;SDS011;22841;50.252;18.688;2023-11-21T04:06:38;31.23;;;14.65;;
36923;SDS011;22841;50.252;18.688;2023-11-21T04:09:04;25.13;;;15.63;;
36923;SDS011;22841;50.252;18.688;2023-11-21T04:11:30;26.83;;;16.48;;
36923;SDS011;22841;50.252;18.688;2023-11-21T04:13:56;31.27;;;16.42;;
36923;SDS011;22841;50.252;18.688;2023-11-21T04:16:23;29.45;;;16.52;;
36923;SDS011;22841;50.252;18.688;2023-11-21T04:18:49;26.60;;;15.82;;
36923;SDS011;22841;50.252;18.688;2023-11-21T04:21:15;29.17;;;13.13;;
36923;SDS011;22841;50.252;18.688;2023-11-21T04:23:41;24.30;;;14.55;;
36923;SDS011;22841;50.252;18.688;2023-11-21T04:26:08;41.63;;;18.83;;
36923;SDS011;22841;50.252;18.688;2023-11-21T04:28:34;29.85;;;17.30;;
36923;SDS011;22841;50.252;18.688;2023-11-21T04:31:00;32.03;;;16.88;;
36923;SDS011;22841;50.252;18.688;2023-11-21T04:33:26;29.85;;;17.27;;
36923;SDS011;22841;50.252;18.688;2023-11-21T04:35:52;29.42;;;17.90;;
36923;SDS011;22841;50.252;18.688;2023-11-21T04:38:18;27.55;;;15.52;;
36923;SDS011;22841;50.252;18.688;2023-11-21T04:40:44;24.92;;;15.75;;
36923;SDS011;22841;50.252;18.688;2023-11-21T04:43:11;23.23;;;13.43;;
36923;SDS011;22841;50.252;18.688;2023-11-21T04:45:37;26.63;;;14.55;;
36923;SDS011;22841;50.252;18.688;2023-11-21T04:48:04;25.75;;;14.25;;
36923;SDS011;22841;50.252;18.688;2023-11-21T04:50:31;26.73;;;13.65;;
36923;SDS011;22841;50.252;18.688;2023-11-21T04:52:57;24.20;;;15.65;;
36923;SDS011;22841;50.252;18.688;2023-11-21T04:55:23;25.48;;;16.75;;
36923;SDS011;22841;50.252;18.688;2023-11-21T04:57:49;36.80;;;19.85;;
36923;SDS011;22841;50.252;18.688;2023-11-21T05:00:15;32.15;;;18.95;;
36923;SDS011;22841;50.252;18.688;2023-11-21T05:02:41;57.28;;;27.02;;
36923;SDS011;22841;50.252;18.688;2023-11-21T05:05:09;54.85;;;23.80;;
36923;SDS011;22841;50.252;18.688;2023-11-21T05:07:36;51.72;;;22.38;;
36923;SDS011;22841;50.252;18.688;2023-11-21T05:10:05;57.85;;;23.25;;
36923;SDS011;22841;50.252;18.688;2023-11-21T05:12:36;49.60;;;24.38;;
36923;SDS011;22841;50.252;18.688;2023-11-21T05:15:05;44.75;;;22.33;;
36923;SDS011;22841;50.252;18.688;2023-11-21T05:17:38;57.53;;;22.90;;
36923;SDS011;22841;50.252;18.688;2023-11-21T05:20:08;49.75;;;22.17;;
36923;SDS011;22841;50.252;18.688;2023-11-21T05:22:36;49.75;;;20.85;;
36923;SDS011;22841;50.252;18.688;2023-11-21T05:25:02;48.60;;;23.75;;
36923;SDS011;22841;50.252;18.688;2023-11-21T05:27:29;41.25;;;21.55;;
36923;SDS011;22841;50.252;18.688;2023-11-21T05:29:56;30.85;;;18.33;;
36923;SDS011;22841;50.252;18.688;2023-11-21T05:32:25;28.40;;;15.15;;
36923;SDS011;22841;50.252;18.688;2023-11-21T05:34:52;22.55;;;11.88;;
36923;SDS011;22841;50.252;18.688;2023-11-21T05:37:18;26.38;;;13.32;;
36923;SDS011;22841;50.252;18.688;2023-11-21T05:39:44;22.25;;;12.30;;
36923;SDS011;22841;50.252;18.688;2023-11-21T05:42:11;23.95;;;12.98;;
36923;SDS011;22841;50.252;18.688;2023-11-21T05:44:37;25.70;;;14.50;;
36923;SDS011;22841;50.252;18.688;2023-11-21T05:47:07;34.70;;;18.55;;
36923;SDS011;22841;50.252;18.688;2023-11-21T05:49:34;26.52;;;18.42;;
36923;SDS011;22841;50.252;18.688;2023-11-21T05:52:00;32.45;;;19.50;;
36923;SDS011;22841;50.252;18.688;2023-11-21T05:54:26;35.25;;;22.90;;
36923;SDS011;22841;50.252;18.688;2023-11-21T05:56:53;33.58;;;21.30;;
36923;SDS011;22841;50.252;18.688;2023-11-21T05:59:19;27.13;;;18.88;;
36923;SDS011;22841;50.252;18.688;2023-11-21T06:01:45;31.25;;;19.02;;
36923;SDS011;22841;50.252;18.688;2023-11-21T06:04:12;29.65;;;17.58;;
36923;SDS011;22841;50.252;18.688;2023-11-21T06:06:38;32.15;;;18.15;;
36923;SDS011;22841;50.252;18.688;2023-11-21T06:09:05;29.45;;;17.83;;
36923;SDS011;22841;50.252;18.688;2023-11-21T06:11:34;28.27;;;17.55;;
36923;SDS011;22841;50.252;18.688;2023-11-21T06:14:00;33.72;;;17.25;;
36923;SDS011;22841;50.252;18.688;2023-11-21T06:16:26;37.92;;;18.70;;
36923;SDS011;22841;50.252;18.688;2023-11-21T06:18:53;35.30;;;18.42;;
36923;SDS011;22841;50.252;18.688;2023-11-21T06:21:19;31.48;;;18.30;;
36923;SDS011;22841;50.252;18.688;2023-11-21T06:23:45;32.55;;;18.15;;
36923;SDS011;22841;50.252;18.688;2023-11-21T06:26:12;30.35;;;18.33;;
36923;SDS011;22841;50.252;18.688;2023-11-21T06:28:38;32.83;;;18.40;;
36923;SDS011;22841;50.252;18.688;2023-11-21T06:31:05;30.40;;;18.33;;
36923;SDS011;22841;50.252;18.688;2023-11-21T06:33:31;27.65;;;17.67;;
36923;SDS011;22841;50.252;18.688;2023-11-21T06:35:58;36.83;;;19.92;;
36923;SDS011;22841;50.252;18.688;2023-11-21T06:38:24;37.85;;;21.60;;
36923;SDS011;22841;50.252;18.688;2023-11-21T06:40:55;44.65;;;23.27;;
36923;SDS011;22841;50.252;18.688;2023-11-21T06:43:23;47.25;;;25.05;;
36923;SDS011;22841;50.252;18.688;2023-11-21T06:45:50;48.47;;;22.95;;
36923;SDS011;22841;50.252;18.688;2023-11-21T06:48:17;44.55;;;23.90;;
36923;SDS011;22841;50.252;18.688;2023-11-21T06:50:43;38.22;;;24.23;;
36923;SDS011;22841;50.252;18.688;2023-11-21T06:53:09;39.60;;;21.45;;
36923;SDS011;22841;50.252;18.688;2023-11-21T06:55:35;33.95;;;20.48;;
36923;SDS011;22841;50.252;18.688;2023-11-21T06:58:01;37.15;;;20.95;;
36923;SDS011;22841;50.252;18.688;2023-11-21T07:00:27;40.28;;;19.40;;
36923;SDS011;22841;50.252;18.688;2023-11-21T07:02:54;32.28;;;19.50;;
36923;SDS011;22841;50.252;18.688;2023-11-21T07:05:20;36.15;;;19.85;;
36923;SDS011;22841;50.252;18.688;2023-11-21T07:07:49;31.95;;;19.60;;
36923;SDS011;22841;50.252;18.688;2023-11-21T07:10:15;41.25;;;20.17;;
36923;SDS011;22841;50.252;18.688;2023-11-21T07:12:42;44.28;;;20.80;;
36923;SDS011;22841;50.252;18.688;2023-11-21T07:15:08;36.65;;;20.10;;
36923;SDS011;22841;50.252;18.688;2023-11-21T07:17:35;43.50;;;21.85;;
36923;SDS011;22841;50.252;18.688;2023-11-21T07:20:02;40.17;;;22.77;;
36923;SDS011;22841;50.252;18.688;2023-11-21T07:22:29;46.55;;;24.10;;
36923;SDS011;22841;50.252;18.688;2023-11-21T07:24:55;42.42;;;22.35;;
36923;SDS011;22841;50.252;18.688;2023-11-21T07:27:24;39.38;;;23.13;;
36923;SDS011;22841;50.252;18.688;2023-11-21T07:29:50;39.50;;;22.10;;
36923;SDS011;22841;50.252;18.688;2023-11-21T07:32:17;47.80;;;24.40;;
36923;SDS011;22841;50.252;18.688;2023-11-21T07:34:43;41.40;;;20.80;;
36923;SDS011;22841;50.252;18.688;2023-11-21T07:37:09;39.75;;;19.30;;
36923;SDS011;22841;50.252;18.688;2023-11-21T07:39:35;34.03;;;19.30;;
36923;SDS011;22841;50.252;18.688;2023-11-21T07:42:02;28.50;;;18.17;;
36923;SDS011;22841;50.252;18.688;2023-11-21T07:44:28;35.67;;;18.45;;
36923;SDS011;22841;50.252;18.688;2023-11-21T07:46:54;32.42;;;17.50;;
36923;SDS011;22841;50.252;18.688;2023-11-21T07:49:24;31.13;;;18.55;;
36923;SDS011;22841;50.252;18.688;2023-11-21T07:51:52;38.75;;;17.65;;
36923;SDS011;22841;50.252;18.688;2023-11-21T07:54:18;27.60;;;16.75;;
36923;SDS011;22841;50.252;18.688;2023-11-21T07:56:44;25.05;;;17.05;;
36923;SDS011;22841;50.252;18.688;2023-11-21T07:59:10;29.60;;;16.63;;
36923;SDS011;22841;50.252;18.688;2023-11-21T08:01:38;30.67;;;17.13;;
36923;SDS011;22841;50.252;18.688;2023-11-21T08:04:05;28.40;;;19.30;;
36923;SDS011;22841;50.252;18.688;2023-11-21T08:06:32;35.05;;;23.75;;
36923;SDS011;22841;50.252;18.688;2023-11-21T08:08:58;37.10;;;21.42;;
36923;SDS011;22841;50.252;18.688;2023-11-21T08:11:25;42.28;;;23.27;;
36923;SDS011;22841;50.252;18.688;2023-11-21T08:13:52;43.95;;;24.02;;
36923;SDS011;22841;50.252;18.688;2023-11-21T08:16:19;46.40;;;27.10;;
36923;SDS011;22841;50.252;18.688;2023-11-21T08:18:45;43.08;;;24.25;;
36923;SDS011;22841;50.252;18.688;2023-11-21T08:21:14;37.67;;;21.25;;
36923;SDS011;22841;50.252;18.688;2023-11-21T08:23:40;34.92;;;19.27;;
36923;SDS011;22841;50.252;18.688;2023-11-21T08:26:07;33.08;;;18.20;;
36923;SDS011;22841;50.252;18.688;2023-11-21T08:28:34;38.35;;;19.75;;
36923;SDS011;22841;50.252;18.688;2023-11-21T08:31:00;29.85;;;15.63;;
36923;SDS011;22841;50.252;18.688;2023-11-21T08:33:27;36.30;;;16.35;;
36923;SDS011;22841;50.252;18.688;2023-11-21T08:35:53;34.95;;;17.42;;
36923;SDS011;22841;50.252;18.688;2023-11-21T08:38:19;32.25;;;18.30;;
36923;SDS011;22841;50.252;18.688;2023-11-21T08:40:45;31.63;;;18.38;;
36923;SDS011;22841;50.252;18.688;2023-11-21T08:43:11;29.48;;;15.48;;
36923;SDS011;22841;50.252;18.688;2023-11-21T08:45:39;26.23;;;14.20;;
36923;SDS011;22841;50.252;18.688;2023-11-21T08:48:05;30.50;;;14.18;;
36923;SDS011;22841;50.252;18.688;2023-11-21T08:50:31;31.60;;;13.95;;
36923;SDS011;22841;50.252;18.688;2023-11-21T08:52:58;24.52;;;13.10;;
36923;SDS011;22841;50.252;18.688;2023-11-21T08:55:24;17.48;;;12.48;;
36923;SDS011;22841;50.252;18.688;2023-11-21T08:57:50;32.72;;;13.85;;
36923;SDS011;22841;50.252;18.688;2023-11-21T09:00:16;23.40;;;12.85;;
36923;SDS011;22841;50.252;18.688;2023-11-21T09:02:44;25.60;;;14.60;;
36923;SDS011;22841;50.252;18.688;2023-11-21T09:05:11;28.50;;;16.08;;
36923;SDS011;22841;50.252;18.688;2023-11-21T09:07:39;27.00;;;18.15;;
36923;SDS011;22841;50.252;18.688;2023-11-21T09:10:11;28.02;;;17.88;;
36923;SDS011;22841;50.252;18.688;2023-11-21T09:12:38;32.33;;;17.60;;
36923;SDS011;22841;50.252;18.688;2023-11-21T09:15:05;31.67;;;18.10;;
36923;SDS011;22841;50.252;18.688;2023-11-21T09:17:33;23.60;;;16.58;;
36923;SDS011;22841;50.252;18.688;2023-11-21T09:20:02;28.00;;;15.23;;
36923;SDS011;22841;50.252;18.688;2023-11-21T09:22:30;21.10;;;13.05;;
36923;SDS011;22841;50.252;18.688;2023-11-21T09:24:58;27.08;;;13.75;;
36923;SDS011;22841;50.252;18.688;2023-11-21T09:27:24;30.80;;;13.90;;
36923;SDS011;22841;50.252;18.688;2023-11-21T09:29:51;27.42;;;14.10;;
36923;SDS011;22841;50.252;18.688;2023-11-21T09:32:18;22.05;;;12.07;;
36923;SDS011;22841;50.252;18.688;2023-11-21T09:34:44;24.00;;;12.77;;
36923;SDS011;22841;50.252;18.688;2023-11-21T09:37:10;19.45;;;10.95;;
36923;SDS011;22841;50.252;18.688;2023-11-21T09:39:37;25.50;;;12.05;;
36923;SDS011;22841;50.252;18.688;2023-11-21T09:42:08;22.38;;;10.70;;
36923;SDS011;22841;50.252;18.688;2023-11-21T09:47:17;19.73;;;12.05;;
36923;SDS011;22841;50.252;18.688;2023-11-21T09:49:45;16.50;;;8.82;;
36923;SDS011;22841;50.252;18.688;2023-11-21T09:52:18;24.38;;;9.82;;
36923;SDS011;22841;50.252;18.688;2023-11-21T09:54:51;22.10;;;9.57;;
36923;SDS011;22841;50.252;18.688;2023-11-21T09:57:23;20.52;;;8.95;;
36923;SDS011;22841;50.252;18.688;2023-11-21T09:59:51;18.08;;;10.32;;
36923;SDS011;22841;50.252;18.688;2023-11-21T10:02:25;24.33;;;9.85;;
36923;SDS011;22841;50.252;18.688;2023-11-21T10:04:55;20.25;;;10.52;;
36923;SDS011;22841;50.252;18.688;2023-11-21T10:07:22;18.08;;;10.50;;
36923;SDS011;22841;50.252;18.688;2023-11-21T10:09:48;17.90;;;9.93;;
36923;SDS011;22841;50.252;18.688;2023-11-21T10:12:18;20.35;;;9.27;;
36923;SDS011;22841;50.252;18.688;2023-11-21T10:14:46;11.70;;;6.90;;
36923;SDS011;22841;50.252;18.688;2023-11-21T10:17:18;14.82;;;7.40;;
36923;SDS011;22841;50.252;18.688;2023-11-21T10:19:48;12.57;;;6.40;;
36923;SDS011;22841;50.252;18.688;2023-11-21T10:22:15;15.38;;;7.90;;
36923;SDS011;22841;50.252;18.688;2023-11-21T10:24:42;12.15;;;5.53;;
36923;SDS011;22841;50.252;18.688;2023-11-21T10:27:09;14.88;;;6.25;;
36923;SDS011;22841;50.252;18.688;2023-11-21T10:29:35;8.15;;;4.43;;
36923;SDS011;22841;50.252;18.688;2023-11-21T10:32:02;7.90;;;3.90;;
36923;SDS011;22841;50.252;18.688;2023-11-21T10:34:29;9.55;;;4.18;;
36923;SDS011;22841;50.252;18.688;2023-11-21T10:36:55;14.05;;;3.45;;
36923;SDS011;22841;50.252;18.688;2023-11-21T10:39:23;16.08;;;4.70;;
36923;SDS011;22841;50.252;18.688;2023-11-21T10:41:53;7.47;;;3.60;;
36923;SDS011;22841;50.252;18.688;2023-11-21T10:44:21;10.90;;;4.78;;
36923;SDS011;22841;50.252;18.688;2023-11-21T10:46:52;6.10;;;3.72;;
36923;SDS011;22841;50.252;18.688;2023-11-21T10:49:24;8.20;;;4.07;;
36923;SDS011;22841;50.252;18.688;2023-11-21T10:51:51;5.65;;;2.70;;
36923;SDS011;22841;50.252;18.688;2023-11-21T10:54:19;4.47;;;2.45;;
36923;SDS011;22841;50.252;18.688;2023-11-21T10:56:49;9.60;;;2.70;;
36923;SDS011;22841;50.252;18.688;2023-11-21T10:59:18;19.30;;;4.90;;
36923;SDS011;22841;50.252;18.688;2023-11-21T11:01:46;12.68;;;3.75;;
36923;SDS011;22841;50.252;18.688;2023-11-21T11:04:15;13.40;;;3.20;;
36923;SDS011;22841;50.252;18.688;2023-11-21T11:06:46;24.55;;;5.50;;
36923;SDS011;22841;50.252;18.688;2023-11-21T11:09:17;8.18;;;2.70;;
36923;SDS011;22841;50.252;18.688;2023-11-21T11:11:44;4.05;;;1.92;;
36923;SDS011;22841;50.252;18.688;2023-11-21T11:14:11;4.82;;;2.10;;
36923;SDS011;22841;50.252;18.688;2023-11-21T11:16:38;3.95;;;2.58;;
36923;SDS011;22841;50.252;18.688;2023-11-21T11:19:09;4.65;;;2.95;;
36923;SDS011;22841;50.252;18.688;2023-11-21T11:34:36;4.53;;;2.03;;
36923;SDS011;22841;50.252;18.688;2023-11-21T11:37:18;7.95;;;2.70;;
36923;SDS011;22841;50.252;18.688;2023-11-21T11:39:45;6.53;;;2.53;;
36923;SDS011;22841;50.252;18.688;2023-11-21T11:42:15;6.35;;;2.60;;
36923;SDS011;22841;50.252;18.688;2023-11-21T11:47:31;8.27;;;3.55;;
36923;SDS011;22841;50.252;18.688;2023-11-21T11:52:47;6.80;;;3.15;;
36923;SDS011;22841;50.252;18.688;2023-11-21T11:55:16;10.45;;;4.07;;
36923;SDS011;22841;50.252;18.688;2023-11-21T11:57:44;10.93;;;5.07;;
36923;SDS011;22841;50.252;18.688;2023-11-21T12:00:42;7.97;;;3.28;;
36923;SDS011;22841;50.252;18.688;2023-11-21T12:03:08;9.95;;;3.47;;
36923;SDS011;22841;50.252;18.688;2023-11-21T12:05:35;5.60;;;2.83;;
36923;SDS011;22841;50.252;18.688;2023-11-21T12:08:05;6.47;;;3.08;;
36923;SDS011;22841;50.252;18.688;2023-11-21T12:10:33;6.68;;;2.75;;
36923;SDS011;22841;50.252;18.688;2023-11-21T12:13:02;6.03;;;3.13;;
36923;SDS011;22841;50.252;18.688;2023-11-21T12:15:33;5.65;;;2.60;;
36923;SDS011;22841;50.252;18.688;2023-11-21T12:18:00;7.93;;;2.55;;
36923;SDS011;22841;50.252;18.688;2023-11-21T12:20:27;17.83;;;2.80;;
36923;SDS011;22841;50.252;18.688;2023-11-21T12:22:54;6.95;;;3.22;;
36923;SDS011;22841;50.252;18.688;2023-11-21T12:25:28;7.43;;;3.72;;
36923;SDS011;22841;50.252;18.688;2023-11-21T12:27:57;7.95;;;3.65;;
36923;SDS011;22841;50.252;18.688;2023-11-21T12:30:28;8.80;;;4.28;;
36923;SDS011;22841;50.252;18.688;2023-11-21T12:32:57;9.50;;;4.15;;
36923;SDS011;22841;50.252;18.688;2023-11-21T12:35:25;10.98;;;3.50;;
36923;SDS011;22841;50.252;18.688;2023-11-21T12:37:55;12.45;;;4.13;;
36923;SDS011;22841;50.252;18.688;2023-11-21T12:40:22;10.70;;;4.70;;
36923;SDS011;22841;50.252;18.688;2023-11-21T12:42:51;7.53;;;4.15;;
36923;SDS011;22841;50.252;18.688;2023-11-21T12:45:23;12.60;;;4.88;;
36923;SDS011;22841;50.252;18.688;2023-11-21T12:48:02;11.55;;;5.78;;
36923;SDS011;22841;50.252;18.688;2023-11-21T12:50:34;11.05;;;4.85;;
36923;SDS011;22841;50.252;18.688;2023-11-21T12:53:03;11.13;;;5.22;;
36923;SDS011;22841;50.252;18.688;2023-11-21T12:55:31;13.55;;;7.10;;
36923;SDS011;22841;50.252;18.688;2023-11-21T12:58:00;8.57;;;6.47;;
36923;SDS011;22841;50.252;18.688;2023-11-21T13:00:35;19.15;;;8.02;;
36923;SDS011;22841;50.252;18.688;2023-11-21T13:03:05;13.57;;;7.32;;
36923;SDS011;22841;50.252;18.688;2023-11-21T13:05:35;12.70;;;6.93;;
36923;SDS011;22841;50.252;18.688;2023-11-21T13:08:08;12.98;;;5.95;;
36923;SDS011;22841;50.252;18.688;2023-11-21T13:10:39;10.50;;;5.90;;
36923;SDS011;22841;50.252;18.688;2023-11-21T13:13:08;13.52;;;5.45;;
36923;SDS011;22841;50.252;18.688;2023-11-21T13:15:39;12.30;;;6.00;;
36923;SDS011;22841;50.252;18.688;2023-11-21T13:18:09;17.95;;;6.35;;
36923;SDS011;22841;50.252;18.688;2023-11-21T13:20:36;10.35;;;5.55;;
36923;SDS011;22841;50.252;18.688;2023-11-21T13:23:06;9.63;;;4.75;;
36923;SDS011;22841;50.252;18.688;2023-11-21T13:25:33;16.55;;;6.68;;
36923;SDS011;22841;50.252;18.688;2023-11-21T13:28:00;16.05;;;7.95;;
36923;SDS011;22841;50.252;18.688;2023-11-21T13:30:27;14.23;;;8.27;;
36923;SDS011;22841;50.252;18.688;2023-11-21T13:35:30;18.53;;;7.13;;
36923;SDS011;22841;50.252;18.688;2023-11-21T13:38:07;20.90;;;11.27;;
36923;SDS011;22841;50.252;18.688;2023-11-21T13:40:35;21.05;;;11.38;;
36923;SDS011;22841;50.252;18.688;2023-11-21T13:43:23;21.63;;;9.32;;
36923;SDS011;22841;50.252;18.688;2023-11-21T13:45:51;17.05;;;9.50;;
36923;SDS011;22841;50.252;18.688;2023-11-21T13:48:26;30.25;;;11.85;;
36923;SDS011;22841;50.252;18.688;2023-11-21T13:51:11;26.27;;;14.25;;
36923;SDS011;22841;50.252;18.688;2023-11-21T13:53:44;29.67;;;10.80;;
36923;SDS011;22841;50.252;18.688;2023-11-21T13:56:13;25.50;;;11.30;;
36923;SDS011;22841;50.252;18.688;2023-11-21T13:58:45;28.80;;;16.13;;
36923;SDS011;22841;50.252;18.688;2023-11-21T14:01:17;33.58;;;19.80;;
36923;SDS011;22841;50.252;18.688;2023-11-21T14:04:04;38.83;;;17.65;;
36923;SDS011;22841;50.252;18.688;2023-11-21T14:06:42;44.55;;;19.55;;
36923;SDS011;22841;50.252;18.688;2023-11-21T14:09:17;33.30;;;16.05;;
36923;SDS011;22841;50.252;18.688;2023-11-21T14:12:01;21.70;;;11.15;;
36923;SDS011;22841;50.252;18.688;2023-11-21T14:14:31;30.17;;;11.45;;
36923;SDS011;22841;50.252;18.688;2023-11-21T14:16:57;27.42;;;14.55;;
36923;SDS011;22841;50.252;18.688;2023-11-21T14:19:32;45.22;;;19.50;;
36923;SDS011;22841;50.252;18.688;2023-11-21T14:21:59;30.65;;;15.85;;
36923;SDS011;22841;50.252;18.688;2023-11-21T14:24:26;38.45;;;17.60;;
36923;SDS011;22841;50.252;18.688;2023-11-21T14:26:54;37.75;;;18.52;;
36923;SDS011;22841;50.252;18.688;2023-11-21T14:29:21;48.70;;;19.00;;
36923;SDS011;22841;50.252;18.688;2023-11-21T14:31:49;38.28;;;17.85;;
36923;SDS011;22841;50.252;18.688;2023-11-21T14:34:22;31.83;;;16.48;;
36923;SDS011;22841;50.252;18.688;2023-11-21T14:36:49;39.17;;;19.60;;
36923;SDS011;22841;50.252;18.688;2023-11-21T14:39:16;38.17;;;19.77;;
36923;SDS011;22841;50.252;18.688;2023-11-21T14:41:55;37.60;;;21.45;;
36923;SDS011;22841;50.252;18.688;2023-11-21T14:44:23;36.38;;;19.45;;
36923;SDS011;22841;50.252;18.688;2023-11-21T14:46:52;33.20;;;17.73;;